Погода Тиетена 2 недели

Сан-Паулу, Бразилия

18 - 31 июля
  • 18июля
    Сегодня
    +12°
    +27°
    Ясно и безоблачно
    ВремяПогодаТемператураВлажностьДавлениеВетер, м/сВероятность осадков
    00:00Ясно и безоблачно+17°C91 %725 мм1.3 м/с5 %
    03:00Ясно и безоблачно+15°C95 %724 мм1.4 м/с5 %
    06:00Ясно и безоблачно+14°C97 %724 мм1.3 м/с5 %
    09:00Ясно и безоблачно+17°C78 %726 мм0.5 м/с5 %
    12:00Ясно и безоблачно+24°C53 %726 мм0.1 м/с5 %
    15:00Ясно и безоблачно+26°C44 %725 мм0.7 м/с5 %
    18:00Ясно и безоблачно+23°C58 %725 мм1.3 м/с5 %
    21:00Ясно и безоблачно+19°C86 %725 мм3.6 м/с5 %
  • 19июля
    Пятница
    +12°
    +27°
    Ясно и безоблачно
    ВремяПогодаТемператураВлажностьДавлениеВетер, м/сВероятность осадков
    00:00Ясно и безоблачно+16°C96 %726 мм2.7 м/с5 %
    03:00Ясно и безоблачно+14°C96 %726 мм2.1 м/с5 %
    06:00Ясно и безоблачно+13°C96 %726 мм2.0 м/с5 %
    09:00Ясно и безоблачно+15°C81 %728 мм2.6 м/с5 %
    12:00Ясно и безоблачно+22°C55 %728 мм1.6 м/с5 %
    15:00Ясно и безоблачно+26°C42 %726 мм1.3 м/с5 %
    18:00Ясно и безоблачно+22°C62 %726 мм2.1 м/с5 %
    21:00Ясно и безоблачно+17°C78 %726 мм2.2 м/с5 %
  • 20июля
    Суббота
    +11°
    +27°
    Ясно и безоблачно
    ВремяПогодаТемператураВлажностьДавлениеВетер, м/сВероятность осадков
    00:00Ясно и безоблачно+15°C93 %726 мм1.9 м/с5 %
    03:00Ясно и безоблачно+14°C97 %726 мм1.9 м/с5 %
    06:00Пасмурно, сплошная облачность+14°C100 %726 мм2.5 м/с5 %
    09:00Практически безоблачно+14°C85 %727 мм2.5 м/с5 %
    12:00Ясно и безоблачно+22°C51 %727 мм1.9 м/с5 %
    15:00Ясно и безоблачно+26°C40 %725 мм0.8 м/с5 %
    18:00Ясно и безоблачно+22°C55 %724 мм1.9 м/с5 %
    21:00Ясно и безоблачно+18°C83 %725 мм3.1 м/с5 %
  • 21июля
    Воскресенье
    +12°
    +27°
    Ясно и безоблачно
    ВремяПогодаТемператураВлажностьДавлениеВетер, м/сВероятность осадков
    00:00Ясно и безоблачно+15°C93 %725 мм2.8 м/с5 %
    03:00Ясно и безоблачно+13°C96 %724 мм2.5 м/с5 %
    06:00Ясно и безоблачно+12°C96 %724 мм2.0 м/с5 %
    09:00Ясно и безоблачно+15°C83 %726 мм1.4 м/с5 %
    12:00Ясно и безоблачно+23°C59 %726 мм0.6 м/с5 %
    15:00Ясно и безоблачно+27°C48 %724 мм0.8 м/с5 %
    18:00Ясно и безоблачно+25°C56 %724 мм0.9 м/с5 %
    21:00Ясно и безоблачно+19°C82 %724 мм1.5 м/с5 %
  • 22июля
    Понедельник
    +13°
    +28°
    Ясно и безоблачно
    ВремяПогодаТемператураВлажностьДавлениеВетер, м/сВероятность осадков
    00:00Ясно и безоблачно+15°C93 %724 мм1.9 м/с5 %
    03:00Ясно и безоблачно+14°C95 %724 мм1.5 м/с5 %
    06:00Ясно и безоблачно+13°C97 %724 мм1.5 м/с5 %
    09:00Практически безоблачно+16°C82 %726 мм0.9 м/с5 %
    12:00Ясно и безоблачно+25°C50 %727 мм1.0 м/с5 %
    15:00Ясно и безоблачно+28°C40 %725 мм0.9 м/с5 %
    18:00Ясно и безоблачно+24°C55 %725 мм2.1 м/с5 %
    21:00Ясно и безоблачно+20°C89 %726 мм3.2 м/с5 %
Мы используем cookies
Соглашаюсь